Main page
METAR-TAF:

METAR-TAF

Airports :

St. Clair County International Airport

Port Huron, Michigan, United States

latitude: 42-55N, longitude: 082-32W, elevation: 649 ft

Current weather observation

The report was made 11 minutes ago, at 19:55 UTC
Wind 8 mph from the North with gusts up to 22 mph
Temperature 39°F
Humidity 52%
Pressure 30.23 in. Hg
Visibility: 10 miles
Clear sky

METAR: KPHN 241955Z AUTO 01007G19KT 10SM CLR 04/M05 A3023 RMK AO2

Time: 16:06 (20:06 UTC)


TAF: missing

Weather observations and forecasts of more than 4000 airports (METAR and TAF reports).

The available stations are represented by yellow and red dots on the map.

Hover mouse over dot to see the name of the station.

Then click to see weather observations and forecasts.

To change the map : click on the green buttons with a black cross to zoom in, on the green button with a dash to zoom out, or on the green arrows for adjacent maps.


METAR-TAF: